Time;durP1;ratioP1;P1;durP2;ratioP2;P2;SDS_P1;SDS_P2;PMS_P1;PMS_P2;Temp;Humidity;BMP_temperature;BMP_pressure;BME280_temperature;BME280_humidity;BME280_pressure;Samples;Min_cycle;Max_cycle;Signal;HPM_P1;HPM_P2
2023/05/16 00:00:05;;;;;;;6.60;5.50;;;12.00;98.00;;;11.55;69.74;100763.69;5014486;28;20234;-70
2023/05/16 00:02:39;;;;;;;6.07;5.20;;;12.10;97.90;;;11.62;69.21;100756.66;5014728;28;20191;-70
2023/05/16 00:05:13;;;;;;;4.97;4.47;;;12.10;97.80;;;11.58;69.38;100760.66;5014725;28;20195;-70
2023/05/16 00:07:49;;;;;;;5.27;4.57;;;12.10;97.60;;;11.51;69.70;100764.16;5014483;28;20192;-70
2023/05/16 00:10:23;;;;;;;4.80;4.30;;;12.00;97.80;;;11.39;69.55;100766.34;5014624;28;20710;-69
2023/05/16 00:12:56;;;;;;;5.70;3.93;;;12.00;97.80;;;11.20;70.40;100761.25;5014210;28;20243;-70
2023/05/16 00:15:30;;;;;;;9.40;4.07;;;11.80;98.10;;;11.39;69.51;100760.97;5013850;28;20651;-70
2023/05/16 00:18:03;;;;;;;6.90;4.20;;;11.90;98.10;;;11.40;69.73;100762.66;5013777;28;20191;-70
2023/05/16 00:20:37;;;;;;;5.90;3.90;;;11.90;98.20;;;11.23;70.38;100755.59;5014007;28;20231;-70
2023/05/16 00:23:11;;;;;;;7.20;4.30;;;11.70;98.60;;;11.03;72.22;100756.84;5014019;28;20187;-70
2023/05/16 00:25:46;;;;;;;6.03;4.40;;;11.60;98.80;;;11.24;70.99;100756.41;5013744;28;20195;-70
2023/05/16 00:28:19;;;;;;;5.60;3.83;;;11.80;98.80;;;11.16;71.92;100755.38;5014000;28;20202;-70
2023/05/16 00:30:53;;;;;;;6.83;4.27;;;11.80;98.80;;;11.10;71.94;100752.53;5013868;28;20231;-70
2023/05/16 00:33:26;;;;;;;4.20;3.80;;;11.70;99.10;;;11.01;72.35;100756.19;5013771;28;20293;-70
2023/05/16 00:35:59;;;;;;;5.47;4.60;;;11.60;99.30;;;10.86;73.08;100742.56;5013906;28;20191;-70
2023/05/16 00:38:33;;;;;;;7.63;4.27;;;11.40;99.60;;;11.09;72.52;100756.22;5013868;28;20196;-70
2023/05/16 00:41:06;;;;;;;5.17;4.37;;;11.60;99.50;;;10.98;72.85;100745.81;5013995;28;20246;-70
2023/05/16 00:43:39;;;;;;;5.77;4.13;;;11.60;99.50;;;11.05;72.52;100758.41;5013458;28;20663;-70
2023/05/16 00:46:13;;;;;;;5.00;3.87;;;11.60;99.40;;;11.07;72.59;100750.16;5013455;28;20582;-70
2023/05/16 00:48:46;;;;;;;6.83;4.13;;;11.60;99.40;;;11.16;72.19;100759.94;5013443;28;20286;-70
2023/05/16 00:51:21;;;;;;;6.60;4.33;;;11.70;99.30;;;11.21;72.19;100754.91;5013393;28;20784;-70
2023/05/16 00:53:56;;;;;;;5.70;4.40;;;11.70;99.30;;;11.09;72.30;100764.25;5013348;28;20233;-70
2023/05/16 00:56:30;;;;;;;4.67;4.27;;;11.70;99.30;;;11.22;71.74;100758.44;5013358;28;20195;-70
2023/05/16 00:59:03;;;;;;;5.10;4.00;;;11.80;99.40;;;11.25;71.94;100758.09;5013685;28;20191;-70
2023/05/16 01:01:39;;;;;;;6.20;4.13;;;11.80;99.10;;;11.30;71.53;100759.28;5013241;28;20722;-70
2023/05/16 01:04:13;;;;;;;5.87;4.23;;;11.80;99.20;;;11.13;72.36;100744.16;5013640;28;20592;-70
2023/05/16 01:06:46;;;;;;;5.43;3.80;;;11.70;99.20;;;11.22;72.14;100763.78;5013542;28;20238;-70
2023/05/16 01:09:20;;;;;;;5.93;3.77;;;11.70;99.20;;;11.25;72.12;100756.25;5013599;28;20192;-70
2023/05/16 01:12:07;;;;;;;7.97;4.17;;;11.80;99.30;;;11.16;72.67;100765.28;5013368;28;20223;-70
2023/05/16 01:14:51;;;;;;;5.40;3.77;;;11.70;99.30;;;11.22;72.29;100758.44;5013774;28;20195;-70
2023/05/16 01:17:38;;;;;;;8.23;4.37;;;11.80;99.50;;;11.29;72.81;100764.81;5013238;28;20188;-70
2023/05/16 01:20:23;;;;;;;4.30;3.90;;;11.80;99.60;;;11.26;73.01;100760.63;5013385;28;20233;-70
2023/05/16 01:23:23;;;;;;;4.90;4.03;;;11.80;99.60;;;11.13;73.53;100761.06;5013140;28;20198;-70
2023/05/16 01:26:17;;;;;;;5.83;4.10;;;11.70;99.80;;;11.21;73.20;100768.31;5013472;28;20199;-70
2023/05/16 01:28:51;;;;;;;4.90;4.33;;;11.70;99.90;;;11.16;74.09;100767.97;5013065;28;20196;-70
2023/05/16 01:31:27;;;;;;;6.37;4.57;;;11.70;99.90;;;11.17;73.56;100761.59;5013222;28;20231;-70
2023/05/16 01:34:01;;;;;;;6.37;4.20;;;11.70;99.90;;;11.27;73.07;100758.78;5013032;28;20262;-70
2023/05/16 01:36:44;;;;;;;5.53;3.87;;;11.80;99.90;;;11.17;74.00;100762.44;5013380;28;20192;-70
2023/05/16 01:39:30;;;;;;;5.40;4.03;;;11.70;99.90;;;11.09;73.80;100769.63;5013221;28;20258;-70
2023/05/16 01:42:13;;;;;;;4.00;3.60;;;11.70;99.90;;;11.16;73.14;100767.97;5013244;28;20238;-70
2023/05/16 01:44:59;;;;;;;8.47;3.90;;;11.70;99.90;;;11.18;73.33;100761.44;5013254;28;20201;-70
2023/05/16 01:47:36;;;;;;;6.50;3.97;;;11.70;99.90;;;11.19;73.17;100770.31;5013201;28;20199;-70
2023/05/16 01:50:17;;;;;;;5.47;3.47;;;11.70;99.80;;;11.17;72.90;100780.34;5015725;28;20231;-70
2023/05/16 01:52:59;;;;;;;6.07;3.70;;;11.70;99.90;;;11.15;73.41;100790.41;5016928;28;20219;-70
2023/05/16 01:55:45;;;;;;;4.60;3.27;;;11.70;99.90;;;11.19;73.16;100784.56;5016430;28;20645;-70
2023/05/16 01:58:21;;;;;;;7.67;3.77;;;11.70;99.90;;;11.13;73.54;100782.50;5016317;28;20602;-70
2023/05/16 02:00:59;;;;;;;6.70;3.60;;;11.60;99.90;;;10.99;74.45;100776.97;5016252;28;20238;-70
2023/05/16 02:03:33;;;;;;;6.63;4.17;;;11.60;99.90;;;11.05;73.60;100779.81;5016583;28;20203;-70
2023/05/16 02:06:07;;;;;;;6.37;3.40;;;11.60;99.90;;;11.12;73.34;100780.84;5016487;28;20195;-70
2023/05/16 02:08:40;;;;;;;6.00;3.50;;;11.70;99.90;;;10.99;74.01;100779.63;5016493;28;20195;-70
2023/05/16 02:11:13;;;;;;;7.77;3.87;;;11.60;99.90;;;11.07;73.20;100782.31;5016027;28;20572;-70
2023/05/16 02:13:46;;;;;;;4.83;3.57;;;11.60;99.90;;;11.08;73.61;100774.13;5016339;28;20211;-70
2023/05/16 02:16:20;;;;;;;6.20;3.43;;;11.60;99.90;;;11.02;73.75;100776.63;5016563;28;20192;-70
2023/05/16 02:18:53;;;;;;;8.27;3.43;;;11.60;99.90;;;10.98;74.00;100778.78;5016352;28;20195;-70
2023/05/16 02:21:26;;;;;;;5.67;3.07;;;11.50;99.90;;;10.98;74.04;100778.78;5015767;28;20246;-70
2023/05/16 02:24:00;;;;;;;5.80;3.03;;;11.50;99.90;;;11.00;73.63;100778.63;5015618;28;20667;-70
2023/05/16 02:26:33;;;;;;;4.77;3.00;;;11.50;99.90;;;11.07;73.03;100776.97;5015724;28;20671;-71
2023/05/16 02:29:07;;;;;;;6.07;3.40;;;11.60;99.90;;;11.12;73.08;100772.81;5015967;28;20199;-71
2023/05/16 02:31:41;;;;;;;5.40;2.87;;;11.70;99.90;;;11.17;72.82;100781.19;5016000;28;20234;-69
2023/05/16 02:34:15;;;;;;;6.43;3.00;;;11.70;99.80;;;11.13;72.87;100787.03;5015547;28;20229;-69
2023/05/16 02:36:48;;;;;;;10.63;3.33;;;11.70;99.80;;;11.14;72.80;100783.34;5015639;28;20196;-70
2023/05/16 02:39:22;;;;;;;4.83;3.00;;;11.70;99.70;;;11.14;72.72;100783.34;5015164;28;20195;-69
2023/05/16 02:41:55;;;;;;;9.20;3.27;;;11.70;99.90;;;11.17;72.74;100783.03;5015973;28;20223;-70
2023/05/16 02:44:28;;;;;;;7.37;3.10;;;11.70;99.70;;;11.11;72.65;100794.41;5015555;28;20565;-70
2023/05/16 02:47:01;;;;;;;7.47;2.87;;;11.70;99.70;;;11.06;73.00;100786.84;5016089;28;20192;-70
2023/05/16 02:49:35;;;;;;;7.43;2.87;;;11.70;99.80;;;11.09;72.92;100804.44;5015896;28;20653;-71
2023/05/16 02:52:09;;;;;;;6.93;3.07;;;11.60;99.90;;;11.08;73.40;100797.41;5015394;28;20202;-71
2023/05/16 02:54:42;;;;;;;7.63;2.87;;;11.60;99.90;;;11.06;73.72;100792.19;5017228;28;20215;-73
2023/05/16 02:57:17;;;;;;;10.70;3.10;;;11.60;99.90;;;11.05;74.76;100797.75;5015589;28;20285;-71
2023/05/16 02:59:50;;;;;;;6.67;3.27;;;11.60;99.90;;;11.02;74.74;100795.38;5015081;28;20199;-71
2023/05/16 03:02:24;;;;;;;6.60;3.23;;;11.60;99.90;;;10.98;75.25;100799.38;5015051;28;20250;-70
2023/05/16 03:04:57;;;;;;;8.43;3.97;;;11.50;99.90;;;11.01;75.26;100797.22;5015428;28;20199;-71
2023/05/16 03:07:31;;;;;;;7.50;4.47;;;11.60;99.90;;;10.90;75.67;100804.69;5015364;28;20195;-71
2023/05/16 03:10:04;;;;;;;8.13;4.50;;;11.40;99.90;;;10.87;76.96;100811.22;5014946;28;20707;-71
2023/05/16 03:12:38;;;;;;;9.23;5.30;;;11.50;99.90;;;10.92;77.15;100824.97;5015347;28;20207;-71
2023/05/16 03:15:13;;;;;;;6.93;5.70;;;11.40;99.90;;;10.90;77.81;100815.41;5015122;28;20216;-71
2023/05/16 03:17:46;;;;;;;7.33;5.60;;;11.50;99.90;;;10.76;79.20;100821.34;5014905;28;20595;-71
2023/05/16 03:20:20;;;;;;;5.90;5.07;;;11.40;99.90;;;10.86;78.05;100817.56;5015025;28;20223;-71
2023/05/16 03:22:53;;;;;;;8.93;4.97;;;11.40;99.90;;;10.72;79.28;100815.47;5015062;28;20195;-70
2023/05/16 03:25:26;;;;;;;6.83;4.50;;;11.30;99.90;;;10.75;78.44;100817.88;5015266;28;20195;-70
2023/05/16 03:28:00;;;;;;;5.33;4.40;;;11.30;99.90;;;10.81;78.08;100827.09;5014654;28;20663;-70
2023/05/16 03:30:33;;;;;;;7.57;4.27;;;11.40;99.90;;;10.68;78.94;100831.03;5015093;28;20235;-70
2023/05/16 03:33:07;;;;;;;7.10;4.43;;;11.20;99.90;;;10.66;79.89;100830.34;5014666;28;20219;-71
2023/05/16 03:35:40;;;;;;;6.97;4.57;;;11.20;99.90;;;10.66;79.61;100833.03;5014810;28;20192;-71
2023/05/16 03:38:14;;;;;;;9.03;4.67;;;11.20;99.90;;;10.58;80.60;100838.31;5014813;28;20191;-71
2023/05/16 03:40:47;;;;;;;5.87;4.87;;;11.20;99.90;;;10.45;82.10;100845.94;5014738;28;20599;-71
2023/05/16 03:43:21;;;;;;;8.13;4.33;;;11.10;99.90;;;10.41;81.68;100849.94;5014679;28;20199;-71
2023/05/16 03:45:54;;;;;;;6.30;3.50;;;11.00;99.90;;;10.24;82.10;100840.09;5014727;28;20195;-71
2023/05/16 03:48:28;;;;;;;5.57;4.07;;;10.90;99.90;;;10.29;82.02;100839.63;5014658;28;20192;-71
2023/05/16 03:51:02;;;;;;;6.43;3.73;;;10.90;99.90;;;10.21;82.54;100837.72;5014523;28;20222;-71
2023/05/16 03:53:36;;;;;;;7.97;3.43;;;10.80;99.90;;;10.30;81.16;100839.50;5014472;28;20279;-71
2023/05/16 03:56:10;;;;;;;10.73;3.23;;;10.90;99.90;;;10.26;81.17;100843.47;5014158;28;20571;-71
2023/05/16 03:58:44;;;;;;;8.67;2.97;;;10.90;99.90;;;10.23;80.64;100846.47;5014429;28;20195;-71
2023/05/16 04:01:17;;;;;;;5.50;2.30;;;10.80;99.90;;;10.28;79.62;100849.50;5014334;28;20258;-71
2023/05/16 04:03:50;;;;;;;8.87;2.70;;;10.80;99.90;;;10.26;80.28;100851.50;5014257;28;20629;-71
2023/05/16 04:06:24;;;;;;;5.83;2.33;;;10.80;99.90;;;10.27;80.01;100860.38;5013973;28;20633;-71
2023/05/16 04:08:57;;;;;;;9.00;2.60;;;10.80;99.90;;;10.21;79.74;100859.13;5014306;28;20649;-71
2023/05/16 04:11:30;;;;;;;6.00;2.50;;;10.80;99.90;;;10.29;78.91;100861.88;5013570;28;20227;-71
2023/05/16 04:14:04;;;;;;;8.13;2.90;;;10.90;99.90;;;10.32;78.38;100866.94;5014102;28;20215;-71
2023/05/16 04:16:37;;;;;;;7.50;2.60;;;10.90;99.90;;;10.34;78.58;100864.94;5014189;28;20203;-70
2023/05/16 04:19:10;;;;;;;6.30;2.47;;;10.90;99.90;;;10.32;78.29;100860.72;5014176;28;20195;-71
2023/05/16 04:21:44;;;;;;;8.87;3.00;;;10.90;99.90;;;10.32;77.66;100866.94;5014070;28;20227;-71
2023/05/16 04:24:17;;;;;;;5.57;2.70;;;10.90;99.90;;;10.23;78.79;100875.06;5014064;28;20184;-70
2023/05/16 04:26:50;;;;;;;8.00;2.50;;;10.80;99.90;;;10.33;77.82;100878.47;5013949;28;20203;-70
2023/05/16 04:29:24;;;;;;;11.20;2.80;;;10.90;99.90;;;10.33;78.48;100884.69;5013942;28;20192;-70
2023/05/16 04:31:57;;;;;;;8.50;3.03;;;10.90;99.90;;;10.21;78.83;100888.56;5013452;28;20595;-70
2023/05/16 04:34:32;;;;;;;7.73;2.43;;;10.80;99.90;;;10.30;78.17;100885.00;5013405;28;20227;-71
2023/05/16 04:37:07;;;;;;;9.33;3.20;;;10.90;99.90;;;10.31;78.53;100883.16;5013834;28;20196;-71
2023/05/16 04:39:41;;;;;;;9.57;2.60;;;10.90;99.90;;;10.41;77.83;100884.72;5013835;28;20191;-71
2023/05/16 04:42:15;;;;;;;8.20;3.37;;;11.00;99.90;;;10.46;77.72;100887.78;5013531;28;20567;-71
2023/05/16 04:44:49;;;;;;;9.03;3.13;;;11.00;99.90;;;10.52;78.13;100889.81;5013815;28;20188;-70
2023/05/16 04:47:22;;;;;;;8.67;3.47;;;11.10;99.90;;;10.41;79.42;100898.09;5014033;28;20194;-71
2023/05/16 04:49:55;;;;;;;7.47;3.27;;;11.00;99.90;;;10.47;78.91;100904.69;5013406;28;20648;-71
2023/05/16 04:52:29;;;;;;;9.50;3.87;;;11.00;99.90;;;10.45;79.78;100904.81;5013402;28;20196;-71
2023/05/16 04:55:02;;;;;;;10.53;3.40;;;11.00;99.90;;;10.49;80.00;100902.69;5013617;28;20212;-71
2023/05/16 04:57:35;;;;;;;8.73;3.97;;;11.00;99.90;;;10.46;81.00;100922.59;5013661;28;20191;-71
2023/05/16 05:00:13;;;;;;;9.23;3.93;;;11.00;99.90;;;10.48;80.32;100928.59;5013564;28;20227;-71
2023/05/16 05:02:46;;;;;;;8.67;3.83;;;11.00;99.90;;;10.46;81.37;100932.44;5013689;28;20290;-71
2023/05/16 05:05:20;;;;;;;15.00;4.53;;;11.00;99.90;;;10.37;81.69;100923.53;5013610;28;20195;-71
2023/05/16 05:07:54;;;;;;;10.90;3.33;;;11.00;99.90;;;10.36;81.09;100937.03;5013503;28;20279;-71
2023/05/16 05:10:27;;;;;;;11.53;4.20;;;10.90;99.90;;;10.28;81.54;100932.44;5013549;28;20576;-70
2023/05/16 05:13:01;;;;;;;14.03;4.53;;;10.90;99.90;;;10.33;80.60;100932.00;5013516;28;20187;-71
2023/05/16 05:15:35;;;;;;;11.67;4.00;;;10.90;99.90;;;10.27;80.39;100930.78;5013162;28;20211;-72
2023/05/16 05:18:08;;;;;;;14.33;4.13;;;10.80;99.90;;;10.05;81.46;100941.91;5013768;28;20196;-71
2023/05/16 05:20:42;;;;;;;13.97;4.20;;;10.70;99.90;;;10.06;80.68;100947.13;5013049;28;20281;-71
2023/05/16 05:23:15;;;;;;;17.37;3.60;;;10.60;99.90;;;10.08;80.88;100954.97;5013974;28;20250;-71
2023/05/16 05:25:49;;;;;;;11.37;3.83;;;10.60;99.90;;;10.08;80.75;100963.00;5017369;28;20192;-71
2023/05/16 05:28:22;;;;;;;13.93;3.90;;;10.70;99.90;;;10.03;81.72;100960.75;5017180;28;20187;-71
2023/05/16 05:30:55;;;;;;;14.47;3.90;;;10.60;99.90;;;9.99;81.54;100966.59;5017571;28;20576;-71
2023/05/16 05:33:32;;;;;;;12.77;4.67;;;10.50;99.90;;;9.86;82.06;100972.31;5017172;28;20215;-71
2023/05/16 05:36:07;;;;;;;14.83;3.60;;;10.50;99.90;;;9.78;80.82;100974.03;5017290;28;20266;-70
2023/05/16 05:38:40;;;;;;;19.70;4.43;;;10.50;99.90;;;9.89;80.59;100982.69;5017097;28;20198;-71
2023/05/16 05:41:13;;;;;;;15.83;3.87;;;10.50;99.90;;;9.98;79.64;100976.44;5016933;28;20238;-71
2023/05/16 05:43:46;;;;;;;18.77;4.50;;;10.60;99.90;;;10.04;79.06;100983.00;5016617;28;20195;-70
2023/05/16 05:46:20;;;;;;;16.30;3.20;;;10.60;99.90;;;10.00;78.63;100985.16;5016906;28;20215;-70
2023/05/16 05:48:53;;;;;;;11.43;3.87;;;10.60;99.90;;;9.99;78.75;100988.84;5016502;28;20191;-71
2023/05/16 05:51:27;;;;;;;16.27;3.73;;;10.60;99.90;;;9.97;78.78;100980.09;5016431;28;20273;-71
2023/05/16 05:54:01;;;;;;;14.97;3.80;;;10.60;99.90;;;9.94;79.69;100984.91;5016437;28;20702;-71
2023/05/16 05:56:34;;;;;;;15.77;4.20;;;10.50;99.90;;;10.03;79.48;100992.88;5016640;28;20577;-71
2023/05/16 05:59:07;;;;;;;14.97;3.13;;;10.60;99.90;;;10.11;78.67;100992.13;5016660;28;20188;-71
2023/05/16 06:01:41;;;;;;;17.03;3.03;;;10.70;99.90;;;10.14;77.24;101007.91;5016798;28;20242;-71
2023/05/16 06:04:14;;;;;;;14.47;3.40;;;10.80;99.90;;;10.08;76.61;101011.16;5016573;28;20274;-71
2023/05/16 06:06:48;;;;;;;18.93;4.00;;;10.60;99.90;;;10.14;76.95;101018.59;5016542;28;20257;-71
2023/05/16 06:09:23;;;;;;;17.87;3.37;;;10.70;99.90;;;10.00;75.24;101021.78;5016481;28;20200;-71
2023/05/16 06:11:56;;;;;;;19.30;3.50;;;10.60;99.90;;;10.10;73.82;101026.06;5016349;28;20227;-71
2023/05/16 06:14:30;;;;;;;16.03;3.43;;;10.60;99.90;;;9.90;73.48;101039.69;5016016;28;20198;-71
2023/05/16 06:17:03;;;;;;;16.60;3.63;;;10.60;99.90;;;9.95;74.27;101034.75;5016341;28;20195;-71
2023/05/16 06:19:37;;;;;;;14.53;3.63;;;10.50;99.90;;;9.95;73.39;101037.41;5016287;28;20250;-71
2023/05/16 06:22:10;;;;;;;13.93;3.50;;;10.60;99.90;;;10.06;73.97;101040.75;5015994;28;20711;-71
2023/05/16 06:24:43;;;;;;;17.40;3.43;;;10.70;99.90;;;10.02;73.57;101034.00;5016237;28;20198;-70
2023/05/16 06:27:17;;;;;;;13.47;2.93;;;10.60;99.90;;;10.06;73.13;101034.53;5015949;28;20565;-71
2023/05/16 06:29:50;;;;;;;14.67;3.43;;;10.70;99.90;;;10.01;72.26;101040.34;5016035;28;20188;-71
2023/05/16 06:32:23;;;;;;;16.03;3.30;;;10.70;99.90;;;10.02;72.35;101047.38;5015992;28;20215;-71
2023/05/16 06:34:56;;;;;;;15.40;3.63;;;10.60;99.90;;;10.09;72.56;101042.28;5015802;28;20216;-71
2023/05/16 06:37:30;;;;;;;19.53;3.77;;;10.70;99.90;;;10.14;72.97;101045.34;5015967;28;20191;-71
2023/05/16 06:40:03;;;;;;;11.70;3.23;;;10.70;99.90;;;10.17;73.06;101048.56;5015526;28;20708;-71
2023/05/16 06:42:37;;;;;;;16.73;3.53;;;10.80;99.90;;;10.12;73.38;101052.66;5015583;28;20664;-71
2023/05/16 06:45:13;;;;;;;14.50;3.33;;;10.80;99.90;;;10.18;72.92;101057.44;5015814;28;20188;-71
2023/05/16 06:47:46;;;;;;;13.20;3.20;;;10.80;99.90;;;10.22;71.16;101060.66;5015787;28;20199;-71
2023/05/16 06:50:19;;;;;;;11.87;3.13;;;10.80;99.50;;;10.22;71.82;101066.00;5015637;28;20238;-71
2023/05/16 06:52:53;;;;;;;10.10;2.70;;;10.80;99.60;;;10.26;71.81;101070.94;5015354;28;20195;-71
2023/05/16 06:55:27;;;;;;;11.10;2.90;;;10.80;99.60;;;10.22;71.33;101077.56;5015586;28;20322;-70
2023/05/16 06:58:01;;;;;;;11.33;2.93;;;10.80;99.10;;;10.22;70.41;101074.88;5015543;28;20193;-71
2023/05/16 07:00:34;;;;;;;15.73;3.20;;;10.80;98.80;;;10.24;69.97;101078.25;5015496;28;20354;-71
2023/05/16 07:03:08;;;;;;;14.40;2.97;;;10.90;98.80;;;10.30;70.18;101072.31;5015239;28;20196;-70
2023/05/16 07:05:41;;;;;;;12.63;2.87;;;10.90;98.90;;;10.29;69.91;101070.63;5015497;28;20194;-71
2023/05/16 07:08:15;;;;;;;16.47;3.60;;;10.90;98.60;;;10.28;69.35;101066.25;5015036;28;20641;-71
2023/05/16 07:10:48;;;;;;;14.87;2.80;;;10.90;98.30;;;10.27;68.17;101072.63;5014966;28;20712;-70
2023/05/16 07:13:21;;;;;;;13.07;3.07;;;10.90;97.80;;;10.28;67.82;101071.59;5015363;28;20198;-71
2023/05/16 07:15:55;;;;;;;14.47;3.03;;;10.90;97.70;;;10.29;67.58;101065.28;5014877;28;20306;-70
2023/05/16 07:18:28;;;;;;;9.87;2.90;;;10.90;97.60;;;10.33;67.01;101074.69;5015241;28;20199;-71
2023/05/16 07:21:02;;;;;;;13.40;2.90;;;10.90;97.20;;;10.31;66.09;101079.31;5015122;28;20662;-71
2023/05/16 07:23:36;;;;;;;8.50;3.10;;;11.00;96.60;;;10.33;66.39;101065.81;5015059;28;20218;-70
2023/05/16 07:26:09;;;;;;;17.40;3.13;;;11.00;96.80;;;10.39;66.51;101073.22;5014821;28;20550;-71
2023/05/16 07:28:42;;;;;;;9.13;2.60;;;11.00;96.80;;;10.29;64.71;101075.13;5015821;28;20279;-71
2023/05/16 07:31:16;;;;;;;11.07;2.80;;;11.00;96.20;;;10.43;64.77;101077.28;5014867;28;20310;-71
2023/05/16 07:33:49;;;;;;;11.97;2.53;;;11.10;96.30;;;10.46;64.39;101077.00;5014597;28;20301;-71
2023/05/16 07:36:23;;;;;;;12.93;2.63;;;11.10;96.30;;;10.48;63.65;101075.84;5014887;28;20270;-71
2023/05/16 07:38:56;;;;;;;10.53;2.60;;;11.10;95.70;;;10.52;63.63;101071.88;5014830;28;20202;-71
2023/05/16 07:41:30;;;;;;;15.70;2.90;;;11.20;95.50;;;10.51;63.67;101083.56;5014736;28;20317;-71
2023/05/16 07:44:03;;;;;;;15.90;3.40;;;11.10;95.30;;;10.46;64.03;101099.25;5014429;28;20239;-71
2023/05/16 07:46:36;;;;;;;14.33;2.83;;;11.10;95.40;;;10.53;64.33;101089.63;5014178;28;20188;-71
2023/05/16 07:49:10;;;;;;;14.37;2.83;;;11.20;95.80;;;10.68;62.72;101098.78;5014642;28;20196;-71
2023/05/16 07:51:43;;;;;;;10.50;2.83;;;11.30;95.00;;;10.75;62.48;101107.09;5014526;28;20289;-71
2023/05/16 07:54:17;;;;;;;8.53;2.20;;;11.40;94.80;;;10.77;60.59;101106.91;5014580;28;20198;-71
2023/05/16 07:56:50;;;;;;;9.63;2.60;;;11.40;93.50;;;10.85;60.41;101104.34;5014450;28;20306;-71
2023/05/16 07:59:24;;;;;;;10.60;2.63;;;11.50;93.80;;;10.91;60.04;101093.84;5014165;28;20196;-70
2023/05/16 08:01:57;;;;;;;9.13;2.43;;;11.60;93.80;;;11.01;60.08;101096.44;5014074;28;20708;-70
2023/05/16 08:04:31;;;;;;;9.07;2.73;;;11.60;93.40;;;11.11;59.96;101094.50;5014408;28;20227;-70
2023/05/16 08:07:04;;;;;;;8.03;2.40;;;11.70;93.10;;;11.22;58.39;101091.59;5014389;28;20204;-71
2023/05/16 08:09:38;;;;;;;12.10;2.50;;;11.80;92.60;;;11.21;58.73;101100.63;5014451;28;20191;-70
2023/05/16 08:12:13;;;;;;;9.57;2.20;;;11.80;92.50;;;11.05;57.61;101097.81;5014041;28;20735;-70
2023/05/16 08:14:46;;;;;;;9.20;2.33;;;11.70;91.90;;;11.05;58.39;101100.50;5014404;28;20226;-71
2023/05/16 08:17:20;;;;;;;13.03;2.60;;;11.60;92.30;;;10.89;56.29;101095.81;5014350;28;20243;-71
2023/05/16 08:19:53;;;;;;;9.13;2.50;;;11.50;91.00;;;10.98;57.56;101094.91;5014147;28;20736;-71
2023/05/16 08:22:28;;;;;;;8.77;2.87;;;11.60;92.10;;;10.97;56.59;101101.25;5013959;28;20562;-71
2023/05/16 08:25:01;;;;;;;9.00;2.03;;;11.60;91.50;;;11.11;57.78;101089.16;5014124;28;20186;-71
2023/05/16 08:27:34;;;;;;;8.00;2.13;;;11.70;92.10;;;11.22;56.96;101096.09;5013719;28;20191;-72
2023/05/16 08:30:11;;;;;;;6.57;1.97;;;11.80;91.80;;;11.39;57.55;101101.44;5014036;28;20346;-71
2023/05/16 08:32:45;;;;;;;8.23;2.20;;;12.00;91.60;;;11.51;56.91;101084.06;5013530;28;20242;-71
2023/05/16 08:35:18;;;;;;;7.80;2.50;;;12.20;91.90;;;11.55;56.82;101103.38;5013655;28;20633;-71
2023/05/16 08:37:51;;;;;;;8.13;2.20;;;12.20;91.50;;;11.54;55.43;101094.47;5013849;28;20243;-71
2023/05/16 08:40:28;;;;;;;7.73;2.43;;;12.20;90.60;;;11.55;53.97;101090.81;5013784;28;20266;-71
2023/05/16 08:43:02;;;;;;;6.77;1.87;;;12.20;89.70;;;11.70;55.39;101101.81;5013526;28;20279;-71
2023/05/16 08:45:36;;;;;;;11.17;2.30;;;12.30;90.50;;;11.74;53.72;101095.16;5013541;28;20707;-71
2023/05/16 08:48:15;;;;;;;8.17;2.30;;;12.40;89.10;;;11.85;54.18;101100.22;5013734;28;20295;-71
2023/05/16 08:50:50;;;;;;;9.60;2.10;;;12.40;90.00;;;11.90;53.83;101107.81;5013645;28;20227;-71
2023/05/16 08:53:39;;;;;;;7.63;2.10;;;12.50;89.00;;;12.01;53.65;101094.13;5013759;28;20262;-71
2023/05/16 08:56:14;;;;;;;8.13;2.40;;;12.50;89.10;;;12.08;54.15;101105.88;5013883;28;20544;-71
2023/05/16 08:58:48;;;;;;;7.67;2.03;;;12.70;89.50;;;12.02;52.94;101103.84;5014355;28;20285;-71
2023/05/16 09:01:23;;;;;;;6.07;1.97;;;12.60;87.70;;;11.97;53.27;101098.13;5017471;28;20712;-71
2023/05/16 09:03:57;;;;;;;8.30;1.70;;;12.60;87.10;;;11.98;53.12;101094.44;5017791;28;20202;-71
2023/05/16 09:06:31;;;;;;;10.50;2.33;;;12.60;86.80;;;12.05;53.05;101103.53;5017368;28;20568;-71
2023/05/16 09:09:06;;;;;;;8.17;2.27;;;12.60;87.10;;;11.89;52.80;101095.38;5017510;28;20246;-71
2023/05/16 09:11:40;;;;;;;4.87;2.07;;;12.50;86.20;;;12.03;54.68;101106.38;5017462;28;20238;-71
2023/05/16 09:14:14;;;;;;;11.37;2.43;;;12.60;88.70;;;12.21;54.87;101100.91;5017140;28;20681;-71
2023/05/16 09:17:02;;;;;;;7.00;1.90;;;12.80;89.10;;;12.34;52.63;101103.97;5017366;28;20299;-71
2023/05/16 09:19:43;;;;;;;9.10;2.20;;;12.90;87.10;;;12.52;53.28;101096.66;5017403;28;20219;-72
2023/05/16 09:22:20;;;;;;;6.13;1.90;;;13.10;87.30;;;12.58;52.62;101093.28;5017316;28;20202;-72
2023/05/16 09:24:53;;;;;;;5.53;1.90;;;13.20;86.80;;;12.59;53.43;101092.31;5017304;28;20223;-72
2023/05/16 09:27:26;;;;;;;9.03;2.30;;;13.20;87.00;;;12.54;52.10;101096.47;5017205;28;20192;-72
2023/05/16 09:30:02;;;;;;;5.87;1.83;;;13.20;86.30;;;12.58;54.39;101101.34;5016877;28;20271;-72
2023/05/16 09:32:35;;;;;;;5.77;2.27;;;13.20;88.60;;;12.60;53.69;101107.38;5016830;28;20250;-72
2023/05/16 09:35:15;;;;;;;9.10;2.30;;;13.20;86.60;;;12.66;52.09;101101.38;5016789;28;20199;-72
2023/05/16 09:37:56;;;;;;;7.63;2.20;;;13.20;86.20;;;12.81;53.31;101104.25;5016964;28;20274;-72
2023/05/16 09:40:42;;;;;;;7.77;1.80;;;13.40;86.40;;;12.97;52.57;101096.22;5016924;28;20323;-72
2023/05/16 09:43:22;;;;;;;6.87;2.10;;;13.50;87.30;;;13.09;51.68;101102.13;5016924;28;20226;-72
2023/05/16 09:46:00;;;;;;;6.13;2.23;;;13.60;85.10;;;13.08;51.25;101095.03;5016946;28;20231;-72
2023/05/16 09:48:35;;;;;;;7.93;1.97;;;13.60;83.90;;;13.11;50.99;101100.13;5016862;28;20617;-72
2023/05/16 09:51:15;;;;;;;5.83;1.97;;;13.60;82.90;;;13.12;47.72;101096.41;5016747;28;20231;-72
2023/05/16 09:53:49;;;;;;;9.03;2.20;;;13.70;80.60;;;13.19;46.56;101097.41;5016717;28;20214;-72
2023/05/16 09:56:22;;;;;;;6.27;1.80;;;13.70;79.50;;;13.30;47.31;101088.16;5016315;28;20665;-72
2023/05/16 09:58:56;;;;;;;5.57;1.40;;;13.90;78.80;;;13.38;47.29;101072.03;5016623;28;20195;-72
2023/05/16 10:01:29;;;;;;;7.70;1.87;;;13.90;77.90;;;13.53;47.72;101081.91;5017504;28;20230;-71
2023/05/16 10:04:03;;;;;;;9.00;1.80;;;14.10;78.60;;;13.46;46.23;101086.28;5016938;28;20250;-71
2023/05/16 10:06:37;;;;;;;4.77;1.83;;;14.00;76.10;;;13.33;46.61;101107.50;5016388;28;20281;-71
2023/05/16 10:09:13;;;;;;;6.43;1.67;;;13.90;75.70;;;13.41;46.84;101106.66;5015894;28;20588;-71
2023/05/16 10:11:49;;;;;;;7.87;1.80;;;13.90;76.50;;;13.44;47.10;101091.00;5016181;28;20318;-71
2023/05/16 10:14:25;;;;;;;11.40;2.33;;;14.00;77.00;;;13.45;47.65;101090.00;5016361;28;20223;-71
2023/05/16 10:17:03;;;;;;;6.77;1.90;;;14.00;76.10;;;13.56;46.18;101084.25;5015935;28;20653;-71
2023/05/16 10:19:42;;;;;;;5.57;1.73;;;14.10;75.40;;;13.65;47.14;101082.41;5016191;28;20270;-71
2023/05/16 10:22:17;;;;;;;6.87;1.80;;;14.20;75.30;;;13.80;44.72;101083.34;5016199;28;20187;-71
2023/05/16 10:24:58;;;;;;;4.70;1.87;;;14.40;72.10;;;13.88;44.94;101080.66;5016142;28;20198;-71
2023/05/16 10:27:33;;;;;;;5.20;2.00;;;14.40;72.80;;;13.88;46.30;101088.72;5016054;28;20230;-71
2023/05/16 10:30:09;;;;;;;4.70;1.30;;;14.40;75.00;;;13.73;44.92;101088.59;5015935;28;20258;-71
2023/05/16 10:32:44;;;;;;;5.67;1.83;;;14.30;73.30;;;13.76;46.44;101094.66;5015430;28;20223;-71
2023/05/16 10:35:18;;;;;;;5.20;1.77;;;14.20;74.90;;;13.84;45.81;101094.59;5015508;28;20590;-71
2023/05/16 10:37:54;;;;;;;7.17;1.80;;;14.40;74.50;;;13.95;45.03;101084.31;5015817;28;20211;-71
2023/05/16 10:40:29;;;;;;;7.37;1.80;;;14.50;73.70;;;14.06;44.56;101086.66;5015722;28;20316;-71